Time;durP1;ratioP1;P1;durP2;ratioP2;P2;SDS_P1;SDS_P2;PMS_P1;PMS_P2;Temp;Humidity;BMP_temperature;BMP_pressure;BME280_temperature;BME280_humidity;BME280_pressure;Samples;Min_cycle;Max_cycle;Signal;HPM_P1;HPM_P2
2023/03/23 00:05:36;;;;;;;1.63;1.15;;;;;;;19.71;50.05;96270.72;10350401;28;20053;-76
2023/03/23 00:11:00;;;;;;;1.35;1.08;;;;;;;19.71;50.10;96267.22;10378845;28;20049;-76
2023/03/23 00:16:30;;;;;;;1.65;1.00;;;;;;;19.70;50.10;96271.03;10379715;28;20501;-75
2023/03/23 00:21:53;;;;;;;1.50;1.20;;;;;;;19.69;50.14;96261.34;10380870;28;20053;-76
2023/03/23 00:27:14;;;;;;;1.77;1.15;;;;;;;19.68;49.98;96262.47;10360352;28;20046;-75
2023/03/23 00:32:35;;;;;;;1.40;1.02;;;;;;;19.66;50.05;96265.53;10366054;28;20506;-75
2023/03/23 00:37:55;;;;;;;1.38;1.20;;;;;;;19.65;50.15;96266.63;10365222;28;20391;-76
2023/03/23 00:43:16;;;;;;;2.28;1.40;;;;;;;19.65;50.17;96269.34;10364978;28;20052;-76
2023/03/23 00:48:44;;;;;;;1.27;0.90;;;;;;;19.65;50.04;96260.44;10364829;28;20553;-76
2023/03/23 00:54:03;;;;;;;1.20;1.00;;;;;;;19.63;50.04;96247.28;10379308;28;20049;-76
2023/03/23 00:59:23;;;;;;;1.30;1.13;;;;;;;19.63;50.02;96247.28;10364625;28;20346;-76
2023/03/23 01:04:51;;;;;;;1.10;1.00;;;;;;;19.61;50.09;96236.00;10364385;28;20445;-76
2023/03/23 01:10:15;;;;;;;1.45;1.10;;;;;;;19.61;50.09;96232.53;10378815;28;20096;-75
2023/03/23 01:15:35;;;;;;;1.40;1.17;;;;;;;19.60;50.07;96228.25;10364012;28;20041;-76
2023/03/23 01:20:55;;;;;;;1.85;1.20;;;;;;;19.59;50.09;96229.38;10390714;28;20046;-76
2023/03/23 01:26:21;;;;;;;1.60;1.10;;;;;;;19.58;50.15;96216.97;10360055;28;20053;-76
2023/03/23 01:31:42;;;;;;;1.42;1.17;;;;;;;19.57;50.00;96218.91;10349597;28;20042;-76
2023/03/23 01:37:02;;;;;;;1.30;1.00;;;;;;;19.57;50.10;96210.81;10363195;28;20042;-76
2023/03/23 01:42:30;;;;;;;1.48;0.90;;;;;;;19.56;50.08;96210.03;10377062;28;20490;-75
2023/03/23 01:47:57;;;;;;;1.40;1.00;;;;;;;19.55;50.13;96205.72;10362841;28;20046;-76
2023/03/23 01:53:17;;;;;;;0.90;0.90;;;;;;;19.54;50.17;96200.66;10376045;28;20406;-76
2023/03/23 01:58:38;;;;;;;1.20;1.00;;;;;;;19.54;50.19;96200.66;10362105;28;20037;-76
2023/03/23 02:03:57;;;;;;;1.40;1.02;;;;;;;19.52;50.22;96198.31;10375612;28;20410;-76
2023/03/23 02:09:18;;;;;;;1.20;1.10;;;;;;;19.52;50.20;96194.81;10361751;28;20038;-75
2023/03/23 02:14:40;;;;;;;1.00;0.75;;;;;;;19.52;50.14;96195.63;10361891;28;20492;-76
2023/03/23 02:20:21;;;;;;;1.17;1.05;;;;;;;19.50;50.15;96189.75;10361174;28;20046;-75
2023/03/23 02:25:52;;;;;;;1.20;1.10;;;;;;;19.49;50.04;96182.00;10372843;28;20045;-75
2023/03/23 02:31:28;;;;;;;1.17;1.08;;;;;;;19.48;50.08;96181.22;10347047;28;20042;-76
2023/03/23 02:37:01;;;;;;;1.30;1.20;;;;;;;19.48;50.15;96175.81;10360743;28;20045;-75
2023/03/23 02:42:26;;;;;;;0.90;0.88;;;;;;;19.48;50.20;96181.22;10360241;28;20057;-76
2023/03/23 02:47:49;;;;;;;1.40;0.80;;;;;;;19.46;50.19;96169.94;10360089;28;20042;-76
2023/03/23 02:53:11;;;;;;;0.70;0.70;;;;;;;19.46;50.00;96174.56;10359913;28;20052;-75
2023/03/23 02:58:31;;;;;;;0.82;0.80;;;;;;;19.46;50.16;96178.03;10359763;28;20050;-76
2023/03/23 03:03:53;;;;;;;0.80;0.80;;;;;;;19.44;50.11;96169.47;10373152;28;20478;-76
2023/03/23 03:09:20;;;;;;;1.10;0.85;;;;;;;19.44;50.04;96169.47;10373413;28;20037;-75
2023/03/23 03:14:47;;;;;;;1.13;1.02;;;;;;;19.43;50.12;96162.53;10373083;28;20104;-76
2023/03/23 03:20:13;;;;;;;1.30;1.00;;;;;;;19.43;50.08;96173.31;10387700;28;20045;-76
2023/03/23 03:25:33;;;;;;;1.05;0.90;;;;;;;19.42;50.15;96170.94;10358526;28;20050;-75
2023/03/23 03:31:00;;;;;;;1.00;0.82;;;;;;;19.41;50.12;96169.41;10359080;28;20049;-75
2023/03/23 03:36:34;;;;;;;0.93;0.85;;;;;;;19.39;50.15;96161.63;10358981;28;20475;-76
2023/03/23 03:41:56;;;;;;;1.10;1.00;;;;;;;19.39;50.16;96175.13;10360806;28;20042;-73
2023/03/23 03:47:16;;;;;;;1.00;0.90;;;;;;;19.38;50.11;96170.84;10367076;28;20406;-73
2023/03/23 03:52:36;;;;;;;1.00;0.90;;;;;;;19.38;50.14;96186.25;10366600;28;20053;-73
2023/03/23 03:57:57;;;;;;;1.00;0.90;;;;;;;19.36;50.19;96184.66;10380254;28;20053;-73
2023/03/23 04:03:37;;;;;;;1.38;0.90;;;;;;;19.36;50.03;96190.06;10369527;28;20506;-73
2023/03/23 04:09:19;;;;;;;1.17;0.90;;;;;;;19.36;50.10;96189.28;10383132;28;20053;-74
2023/03/23 04:14:41;;;;;;;0.88;0.80;;;;;;;19.35;50.14;96179.63;10366316;28;20069;-74
2023/03/23 04:20:11;;;;;;;1.95;0.90;;;;;;;19.35;49.99;96187.72;10379623;28;20046;-74
2023/03/23 04:25:32;;;;;;;0.82;0.80;;;;;;;19.34;49.99;96188.84;10364555;28;20395;-74
2023/03/23 04:30:53;;;;;;;1.00;0.90;;;;;;;19.32;49.96;96186.47;10365653;28;20053;-74
2023/03/23 04:36:15;;;;;;;0.90;0.90;;;;;;;19.32;50.03;96193.78;10378844;28;20042;-74
2023/03/23 04:41:44;;;;;;;0.82;0.82;;;;;;;19.32;50.08;96202.69;10378718;28;20057;-73
2023/03/23 04:47:39;;;;;;;0.80;0.80;;;;;;;19.30;49.94;96196.81;10378411;28;20100;-74
2023/03/23 04:53:04;;;;;;;0.80;0.80;;;;;;;19.31;50.09;96192.25;10351818;28;20042;-74
2023/03/23 04:58:25;;;;;;;0.82;0.82;;;;;;;19.30;50.10;96201.44;10364455;28;20049;-74
2023/03/23 05:04:00;;;;;;;0.93;0.82;;;;;;;19.29;50.14;96195.28;10354235;28;20441;-74
2023/03/23 05:09:20;;;;;;;0.80;0.75;;;;;;;19.27;50.30;96189.41;10364357;28;20045;-74
2023/03/23 05:14:42;;;;;;;1.20;1.10;;;;;;;19.28;50.78;96198.28;10364099;28;20486;-73
2023/03/23 05:20:12;;;;;;;1.02;0.80;;;;;;;19.27;50.97;96208.31;10338620;28;20426;-73
2023/03/23 05:25:39;;;;;;;0.93;0.85;;;;;;;19.29;50.93;96205.28;10373817;28;20042;-73
2023/03/23 05:31:04;;;;;;;1.67;0.90;;;;;;;19.29;50.99;96197.97;10364273;28;20096;-74
2023/03/23 05:36:25;;;;;;;1.05;0.98;;;;;;;19.30;50.92;96207.63;10363269;28;20042;-73
2023/03/23 05:42:01;;;;;;;4.13;3.08;;;;;;;19.13;44.51;96214.03;10365371;28;20054;-76
2023/03/23 05:47:32;;;;;;;4.60;3.80;;;;;;;18.53;40.79;96210.03;10376119;28;20045;-74
2023/03/23 05:52:57;;;;;;;4.47;2.97;;;;;;;18.51;44.25;96198.78;10363049;28;20050;-73
2023/03/23 05:58:18;;;;;;;2.30;2.10;;;;;;;18.76;46.06;96203.13;10362349;28;20038;-76
2023/03/23 06:03:40;;;;;;;4.30;2.30;;;;;;;18.93;47.01;96210.31;10348731;28;20482;-75
2023/03/23 06:09:09;;;;;;;3.65;2.45;;;;;;;19.04;46.95;96207.94;10362510;28;20045;-75
2023/03/23 06:14:48;;;;;;;15.25;4.05;;;;;;;19.09;45.52;96210.44;10377758;28;20046;-75
2023/03/23 06:20:12;;;;;;;5.50;2.83;;;;;;;19.12;47.03;96207.06;10361679;28;20049;-75
2023/03/23 06:25:34;;;;;;;7.85;3.33;;;;;;;19.16;47.28;96207.97;10360003;28;20054;-75
2023/03/23 06:30:54;;;;;;;9.77;4.20;;;;;;;19.19;47.15;96197.59;10374374;28;20513;-75
2023/03/23 06:36:14;;;;;;;10.13;4.22;;;;;;;19.22;47.41;96203.13;10347027;28;20041;-75
2023/03/23 06:42:00;;;;;;;11.23;4.55;;;;;;;19.24;47.43;96202.78;10388922;28;20034;-75
2023/03/23 06:47:24;;;;;;;12.40;4.65;;;;;;;19.25;47.44;96207.88;10360470;28;20045;-75
2023/03/23 06:52:48;;;;;;;15.27;4.70;;;;;;;19.27;47.39;96204.84;10346597;28;20547;-75
2023/03/23 06:58:10;;;;;;;11.80;4.93;;;;;;;19.30;47.62;96215.72;10360192;28;20037;-75
2023/03/23 07:03:31;;;;;;;13.30;4.93;;;;;;;19.31;47.63;96203.81;10346082;28;20045;-75
2023/03/23 07:08:51;;;;;;;14.13;5.22;;;;;;;19.34;47.77;96213.16;10359578;28;20046;-75
2023/03/23 07:14:16;;;;;;;17.42;5.75;;;;;;;19.38;47.97;96218.66;10359973;28;20050;-75
2023/03/23 07:19:35;;;;;;;13.98;4.95;;;;;;;19.39;47.87;96220.25;10359205;28;20046;-75
2023/03/23 07:24:56;;;;;;;12.52;5.07;;;;;;;19.42;47.97;96214.94;10359009;28;20041;-75
2023/03/23 07:30:21;;;;;;;12.60;5.05;;;;;;;19.44;47.84;96218.09;10359270;28;20042;-75
2023/03/23 07:35:41;;;;;;;13.23;5.25;;;;;;;19.47;47.89;96222.06;10345774;28;20529;-75
2023/03/23 07:41:03;;;;;;;12.40;5.45;;;;;;;19.51;48.01;96223.75;10359450;28;20041;-72
2023/03/23 07:46:25;;;;;;;12.95;5.03;;;;;;;19.53;47.99;96220.72;10372441;28;20042;-72
2023/03/23 07:52:01;;;;;;;12.68;5.30;;;;;;;19.56;48.13;96225.41;10372143;28;20445;-72
2023/03/23 07:57:21;;;;;;;12.20;5.03;;;;;;;19.60;48.05;96222.84;10358244;28;20065;-72
2023/03/23 08:02:52;;;;;;;12.75;4.93;;;;;;;19.62;48.16;96226.00;10358913;28;20475;-72
2023/03/23 08:08:26;;;;;;;9.43;4.40;;;;;;;19.64;48.24;96221.03;10371794;28;20045;-72
2023/03/23 08:14:21;;;;;;;11.52;4.88;;;;;;;19.67;48.22;96215.75;10362953;28;20053;-72
2023/03/23 08:19:55;;;;;;;9.50;4.78;;;;;;;19.70;48.17;96223.19;10348209;28;20038;-72
2023/03/23 08:25:49;;;;;;;16.17;4.78;;;;;;;19.72;48.38;96218.25;10369547;28;20529;-72
2023/03/23 08:31:14;;;;;;;9.70;4.57;;;;;;;19.75;48.41;96216.78;10378374;28;20402;-72
2023/03/23 08:36:57;;;;;;;9.70;4.43;;;;;;;19.78;48.28;96221.53;10368426;28;20053;-72
2023/03/23 08:42:38;;;;;;;12.68;4.68;;;;;;;19.82;48.38;96221.63;10381401;28;20065;-72
2023/03/23 08:48:23;;;;;;;10.13;4.78;;;;;;;19.84;48.56;96208.56;10369187;28;20050;-72
2023/03/23 08:54:03;;;;;;;9.88;4.32;;;;;;;19.89;48.45;96203.69;10339491;28;20065;-72
2023/03/23 08:59:41;;;;;;;10.38;4.30;;;;;;;19.92;48.54;96202.25;10377967;28;20115;-72
2023/03/23 09:05:27;;;;;;;8.73;3.97;;;;;;;19.94;48.44;96208.88;10367255;28;20038;-72
2023/03/23 09:11:06;;;;;;;8.38;4.18;;;;;;;19.97;48.37;96215.50;10392417;28;20038;-72
2023/03/23 09:16:26;;;;;;;9.82;4.25;;;;;;;20.00;48.48;96200.53;10392378;28;20465;-72
2023/03/23 09:21:46;;;;;;;10.27;4.43;;;;;;;20.04;48.42;96196.03;10349937;28;20038;-72
2023/03/23 09:27:06;;;;;;;7.90;3.88;;;;;;;20.05;48.44;96208.41;10358058;28;20064;-72
2023/03/23 09:32:26;;;;;;;9.85;4.40;;;;;;;20.07;48.42;96200.72;10363436;28;20038;-72
2023/03/23 09:37:45;;;;;;;7.18;3.47;;;;;;;20.10;48.46;96203.53;10362912;28;20046;-72
2023/03/23 09:43:17;;;;;;;7.65;3.47;;;;;;;20.13;48.50;96199.34;10375833;28;20038;-74
2023/03/23 09:48:49;;;;;;;7.55;3.75;;;;;;;20.13;48.46;96199.34;10362888;28;20042;-76
2023/03/23 09:54:30;;;;;;;7.57;3.88;;;;;;;20.17;48.50;96196.75;10376054;28;20045;-75
2023/03/23 09:59:53;;;;;;;6.85;3.67;;;;;;;20.19;48.40;96189.09;10362075;28;20042;-75
2023/03/23 10:05:31;;;;;;;6.43;3.45;;;;;;;20.19;48.41;96198.03;10375541;28;20163;-75
2023/03/23 10:10:51;;;;;;;;;;;;;;;20.22;48.51;96193.84;10377084;28;20041;-75
2023/03/23 10:16:16;;;;;;;8.30;3.97;;;;;;;20.22;48.44;96207.34;10390004;28;19997;-74
2023/03/23 10:21:38;;;;;;;7.88;3.38;;;;;;;20.23;48.54;96206.22;10374849;28;20046;-75
2023/03/23 10:27:02;;;;;;;6.88;3.65;;;;;;;20.24;48.58;96211.28;10369657;28;20089;-75
2023/03/23 10:32:39;;;;;;;5.78;3.17;;;;;;;20.25;48.43;96212.09;10348188;28;20065;-76
2023/03/23 10:38:06;;;;;;;5.05;2.90;;;;;;;20.26;48.17;96208.25;10360754;28;20053;-76
2023/03/23 10:43:26;;;;;;;6.30;3.25;;;;;;;20.24;48.25;96189.66;10375051;28;20042;-76
2023/03/23 10:48:49;;;;;;;6.05;3.10;;;;;;;20.26;48.07;96189.31;10373797;28;20049;-76
2023/03/23 10:54:09;;;;;;;7.88;3.58;;;;;;;20.26;48.35;96184.69;10373529;28;20046;-76
2023/03/23 10:59:30;;;;;;;6.20;2.90;;;;;;;20.26;48.30;96184.69;10373612;28;20048;-76
2023/03/23 11:05:01;;;;;;;6.43;3.30;;;;;;;20.27;48.37;96199.00;10373298;28;20069;-76
2023/03/23 11:10:44;;;;;;;5.07;2.85;;;;;;;20.28;48.31;96190.53;10387981;28;20065;-76
2023/03/23 11:16:04;;;;;;;4.63;2.60;;;;;;;20.29;48.44;96196.75;10345165;28;20460;-75
2023/03/23 11:21:26;;;;;;;4.82;2.83;;;;;;;20.28;48.37;96200.56;10372828;28;20045;-75
2023/03/23 11:26:47;;;;;;;5.10;2.45;;;;;;;20.27;48.43;96202.50;10368361;28;20108;-75
2023/03/23 11:32:11;;;;;;;4.63;2.78;;;;;;;20.28;48.43;96195.94;10372931;28;20105;-76
2023/03/23 11:37:41;;;;;;;4.45;2.90;;;;;;;20.29;48.55;96197.53;10372557;28;20054;-76
2023/03/23 11:43:14;;;;;;;6.10;2.80;;;;;;;20.29;48.58;96185.94;10372808;28;20038;-76
2023/03/23 11:48:43;;;;;;;4.38;2.60;;;;;;;20.29;48.50;96192.13;10358540;28;20476;-76
2023/03/23 11:54:21;;;;;;;4.70;2.83;;;;;;;20.29;48.54;96200.22;10387095;28;20548;-76
2023/03/23 11:59:41;;;;;;;4.50;2.65;;;;;;;20.30;48.47;96192.91;10386905;28;20045;-75
2023/03/23 12:05:29;;;;;;;4.40;2.60;;;;;;;20.30;48.62;96187.50;10375910;28;20041;-75
2023/03/23 12:11:05;;;;;;;3.72;2.45;;;;;;;20.29;48.77;96186.72;10379846;28;20113;-76
2023/03/23 12:16:33;;;;;;;4.05;2.20;;;;;;;20.29;48.58;96185.94;10394745;28;20556;-76
2023/03/23 12:22:03;;;;;;;3.30;2.20;;;;;;;20.29;48.67;96185.94;10394475;28;20406;-76
2023/03/23 12:27:56;;;;;;;3.80;2.25;;;;;;;20.29;48.64;96185.94;10373131;28;20370;-76
2023/03/23 12:33:45;;;;;;;5.20;2.30;;;;;;;20.28;48.73;96193.25;10393863;28;20050;-76
2023/03/23 12:39:27;;;;;;;3.28;2.45;;;;;;;20.28;48.74;96193.25;10379035;28;20046;-76
2023/03/23 12:44:49;;;;;;;3.50;2.22;;;;;;;20.28;48.68;96187.81;10378622;28;20461;-76
2023/03/23 12:50:21;;;;;;;3.70;2.40;;;;;;;20.27;48.81;96183.56;10365251;28;20383;-76
2023/03/23 12:55:47;;;;;;;3.70;2.38;;;;;;;20.27;48.85;96180.84;10364550;28;20054;-76
2023/03/23 13:01:32;;;;;;;3.22;2.20;;;;;;;20.26;48.85;96176.56;10364407;28;20052;-76
2023/03/23 13:06:51;;;;;;;3.65;2.30;;;;;;;20.27;48.84;96174.66;10337602;28;20068;-76
2023/03/23 13:12:11;;;;;;;4.60;2.00;;;;;;;20.26;49.11;96164.97;10364262;28;20058;-76
2023/03/23 13:17:54;;;;;;;2.88;1.90;;;;;;;20.24;48.92;96168.00;10377438;28;20057;-76
2023/03/23 13:23:36;;;;;;;4.40;2.40;;;;;;;20.24;48.86;96168.00;10377175;28;20482;-76
2023/03/23 13:28:58;;;;;;;3.08;2.20;;;;;;;20.24;48.79;96178.81;10381644;28;20453;-76
2023/03/23 13:34:22;;;;;;;4.22;2.40;;;;;;;20.24;48.86;96170.72;10377019;28;20046;-76
2023/03/23 13:40:10;;;;;;;2.70;2.08;;;;;;;20.24;49.01;96168.00;10362840;28;20045;-76
2023/03/23 13:45:32;;;;;;;5.35;2.00;;;;;;;20.22;48.86;96164.88;10391357;28;20049;-76
2023/03/23 13:50:54;;;;;;;3.15;1.90;;;;;;;20.23;48.92;96161.03;10391001;28;20038;-76
2023/03/23 13:56:19;;;;;;;2.50;1.88;;;;;;;20.21;48.89;96163.31;10376052;28;20096;-76
2023/03/23 14:01:41;;;;;;;3.90;2.10;;;;;;;20.21;48.94;96168.72;10346555;28;20410;-76
2023/03/23 14:07:10;;;;;;;2.22;1.75;;;;;;;20.22;48.96;96174.91;10362084;28;20140;-76
2023/03/23 14:12:30;;;;;;;3.42;2.08;;;;;;;20.21;49.00;96181.44;10347936;28;20453;-76
2023/03/23 14:17:50;;;;;;;2.97;1.98;;;;;;;20.19;49.08;96178.28;10374937;28;20042;-75
2023/03/23 14:23:17;;;;;;;2.78;1.80;;;;;;;20.19;49.04;96189.91;10389796;28;20498;-75
2023/03/23 14:28:39;;;;;;;1.90;1.60;;;;;;;20.19;48.96;96180.97;10379441;28;20062;-76
2023/03/23 14:34:03;;;;;;;3.17;1.95;;;;;;;20.18;48.92;96180.19;10360744;28;20045;-76
2023/03/23 14:39:26;;;;;;;2.30;1.75;;;;;;;20.18;48.81;96184.84;10360572;28;20046;-76
2023/03/23 14:44:48;;;;;;;3.40;1.80;;;;;;;20.17;49.07;96192.16;10360267;28;20096;-75
2023/03/23 14:50:37;;;;;;;3.25;1.98;;;;;;;20.17;49.09;96181.34;10373983;28;20042;-76
2023/03/23 14:56:02;;;;;;;2.65;1.98;;;;;;;20.15;49.00;96181.69;10359997;28;20046;-76
2023/03/23 15:01:28;;;;;;;2.42;1.75;;;;;;;20.15;48.99;96180.91;10359936;28;20414;-76
2023/03/23 15:07:06;;;;;;;2.50;1.60;;;;;;;20.15;49.33;96178.19;10373230;28;20087;-75
2023/03/23 15:12:28;;;;;;;2.60;1.80;;;;;;;20.14;49.08;96173.91;10373298;28;20046;-76
2023/03/23 15:17:48;;;;;;;2.45;1.85;;;;;;;20.12;49.19;96179.66;10359538;28;20042;-76
2023/03/23 15:23:07;;;;;;;2.70;1.88;;;;;;;20.12;49.16;96179.66;10372821;28;20437;-76
2023/03/23 15:28:31;;;;;;;2.75;1.80;;;;;;;20.11;49.12;96175.38;10349939;28;20054;-76
2023/03/23 15:33:57;;;;;;;2.83;1.80;;;;;;;20.11;49.11;96174.59;10372707;28;20049;-76
2023/03/23 15:39:17;;;;;;;1.80;1.60;;;;;;;20.10;49.18;96170.31;10371714;28;20049;-75
2023/03/23 15:44:37;;;;;;;2.15;1.58;;;;;;;20.08;49.09;96156.34;10372500;28;20042;-75
2023/03/23 15:50:31;;;;;;;2.33;1.85;;;;;;;20.10;49.29;96171.09;10386933;28;20045;-76
2023/03/23 15:55:51;;;;;;;1.70;1.60;;;;;;;20.09;49.16;96179.53;10373682;28;20176;-76
2023/03/23 16:01:16;;;;;;;2.90;1.55;;;;;;;20.07;49.17;96188.03;10387003;28;20038;-76
2023/03/23 16:06:36;;;;;;;2.30;1.65;;;;;;;20.07;49.04;96198.84;10386692;28;20123;-75
2023/03/23 16:11:56;;;;;;;1.88;1.52;;;;;;;20.06;49.13;96216.19;10371610;28;20041;-75
2023/03/23 16:17:18;;;;;;;2.25;1.40;;;;;;;20.05;49.05;96225.44;10357821;28;20414;-75
2023/03/23 16:22:38;;;;;;;3.05;1.65;;;;;;;20.05;48.76;96219.22;10371578;28;20061;-75
2023/03/23 16:27:57;;;;;;;1.60;1.30;;;;;;;20.04;49.06;96234.66;10378747;28;20062;-75
2023/03/23 16:33:16;;;;;;;2.38;1.55;;;;;;;20.04;49.13;96231.19;10386236;28;20042;-76
2023/03/23 16:38:38;;;;;;;2.65;1.50;;;;;;;20.04;49.12;96255.50;10357706;28;20427;-75
2023/03/23 16:43:57;;;;;;;2.40;1.42;;;;;;;19.98;45.84;96240.66;10357424;28;20038;-76
2023/03/23 16:49:17;;;;;;;4.15;1.10;;;;;;;19.76;42.94;96237.28;10358420;28;20497;-75
2023/03/23 16:54:36;;;;;;;1.40;1.30;;;;;;;19.53;41.41;96232.28;10378211;28;20072;-76
2023/03/23 16:59:57;;;;;;;2.15;0.95;;;;;;;19.38;40.90;96243.75;10364497;28;20052;-76
2023/03/23 17:05:21;;;;;;;0.80;0.80;;;;;;;19.41;42.32;96245.03;10362290;28;20054;-77
2023/03/23 17:10:42;;;;;;;1.90;1.10;;;;;;;19.43;41.64;96267.88;10365693;28;20053;-77
2023/03/23 17:16:02;;;;;;;1.38;1.17;;;;;;;19.48;42.26;96251.44;10393833;28;20054;-77
2023/03/23 17:21:24;;;;;;;1.30;1.10;;;;;;;19.58;43.89;96260.22;10363936;28;20049;-77
2023/03/23 17:26:44;;;;;;;4.32;1.15;;;;;;;19.65;44.19;96249.66;10370991;28;20049;-76
2023/03/23 17:32:03;;;;;;;3.35;1.30;;;;;;;19.70;44.73;96254.84;10377268;28;20108;-76
2023/03/23 17:37:23;;;;;;;1.52;1.10;;;;;;;19.72;44.84;96263.41;10377108;28;20054;-76
2023/03/23 17:42:42;;;;;;;1.50;1.10;;;;;;;19.76;45.13;96272.44;10376536;28;20042;-77
2023/03/23 17:48:06;;;;;;;2.03;1.20;;;;;;;19.78;45.51;96264.75;10363070;28;20053;-76
2023/03/23 17:53:26;;;;;;;10.13;2.10;;;;;;;19.81;46.91;96272.19;10376470;28;20042;-77
2023/03/23 17:58:46;;;;;;;6.32;2.10;;;;;;;19.83;47.19;96283.44;10376383;28;20046;-77
2023/03/23 18:04:05;;;;;;;4.65;2.20;;;;;;;19.84;46.55;96295.84;10361423;28;20041;-78
2023/03/23 18:09:27;;;;;;;4.68;1.63;;;;;;;19.84;45.17;96309.34;10348276;28;20482;-82
2023/03/23 18:14:47;;;;;;;5.80;2.00;;;;;;;19.86;45.30;96304.41;10363027;28;20050;-77
2023/03/23 18:20:08;;;;;;;5.63;2.10;;;;;;;19.86;45.81;96304.41;10375318;28;20085;-77
2023/03/23 18:25:28;;;;;;;5.35;2.22;;;;;;;19.87;46.10;96314.06;10374187;28;20041;-78
2023/03/23 18:30:48;;;;;;;3.03;1.70;;;;;;;19.88;45.88;96307.56;10361419;28;20050;-78
2023/03/23 18:36:08;;;;;;;4.07;1.90;;;;;;;19.90;46.22;96304.53;10361335;28;20495;-77
2023/03/23 18:41:28;;;;;;;4.15;1.80;;;;;;;19.91;46.42;96306.09;10347228;28;20410;-77
2023/03/23 18:46:47;;;;;;;3.45;1.88;;;;;;;19.92;46.45;96297.63;10373767;28;20038;-77
2023/03/23 18:52:06;;;;;;;3.08;1.67;;;;;;;19.94;46.77;96300.78;10373995;28;20042;-78
2023/03/23 18:57:26;;;;;;;3.60;1.67;;;;;;;19.95;47.63;96305.09;10374031;28;20046;-77
2023/03/23 19:02:46;;;;;;;2.42;1.80;;;;;;;19.99;48.02;96304.41;10360004;28;20383;-78
2023/03/23 19:08:07;;;;;;;3.50;1.83;;;;;;;19.99;48.67;96302.47;10359984;28;20045;-78
2023/03/23 19:13:29;;;;;;;3.17;1.90;;;;;;;20.02;48.70;96306.44;10345808;28;20057;-76
2023/03/23 19:18:49;;;;;;;2.88;1.60;;;;;;;20.03;48.70;96313.41;10387899;28;20092;-78
2023/03/23 19:24:08;;;;;;;2.05;1.83;;;;;;;20.04;48.50;96309.59;10372872;28;20049;-77
2023/03/23 19:29:28;;;;;;;2.05;1.67;;;;;;;20.05;48.68;96311.16;10334755;28;20054;-76
2023/03/23 19:34:48;;;;;;;2.78;1.95;;;;;;;20.06;48.63;96308.09;10346283;28;20061;-77
2023/03/23 19:40:08;;;;;;;2.67;1.83;;;;;;;20.06;48.47;96301.91;10345979;28;20042;-76
2023/03/23 19:45:28;;;;;;;2.22;1.90;;;;;;;20.07;48.72;96293.47;10345767;28;20104;-76
2023/03/23 19:50:51;;;;;;;2.33;2.00;;;;;;;20.08;48.85;96289.63;10332172;28;20126;-79
2023/03/23 19:56:16;;;;;;;3.58;1.80;;;;;;;20.10;49.03;96284.66;10345436;28;20046;-77
2023/03/23 20:01:38;;;;;;;3.58;1.70;;;;;;;20.11;49.25;96290.84;10332122;28;20046;-77
2023/03/23 20:06:57;;;;;;;2.63;1.48;;;;;;;20.13;49.60;96285.91;10331973;28;20479;-78
2023/03/23 20:12:17;;;;;;;2.65;1.63;;;;;;;20.11;49.68;96283.56;10331642;28;20458;-77
2023/03/23 20:17:37;;;;;;;2.72;1.92;;;;;;;20.14;49.86;96290.97;10345409;28;20053;-77
2023/03/23 20:22:57;;;;;;;2.20;1.63;;;;;;;20.14;50.05;96284.78;10345446;28;20042;-77
2023/03/23 20:28:16;;;;;;;3.08;1.70;;;;;;;20.15;50.22;96289.84;10368771;28;20050;-78
2023/03/23 20:33:36;;;;;;;2.65;1.52;;;;;;;20.17;50.15;96289.53;10365518;28;20041;-77
2023/03/23 20:39:00;;;;;;;1.30;1.20;;;;;;;20.15;49.85;96286.38;10365170;28;20042;-77
2023/03/23 20:44:22;;;;;;;2.92;1.88;;;;;;;20.15;50.19;96283.66;10379570;28;20046;-76
2023/03/23 20:49:41;;;;;;;3.65;1.95;;;;;;;20.15;50.10;96283.66;10379105;28;20038;-76
2023/03/23 20:55:01;;;;;;;2.00;1.80;;;;;;;20.14;50.13;96274.75;10378430;28;20045;-77
2023/03/23 21:00:21;;;;;;;4.82;2.10;;;;;;;20.16;50.39;96269.00;10364602;28;20406;-76
2023/03/23 21:05:42;;;;;;;6.15;2.00;;;;;;;20.15;50.68;96272.84;10364294;28;20064;-77
2023/03/23 21:11:03;;;;;;;3.42;2.10;;;;;;;20.16;50.79;96260.88;10350391;28;20048;-76
2023/03/23 21:16:23;;;;;;;2.75;1.85;;;;;;;20.14;50.77;96252.34;10364188;28;20092;-77
2023/03/23 21:21:43;;;;;;;3.90;1.90;;;;;;;20.15;50.80;96256.63;10364756;28;20053;-78
2023/03/23 21:27:02;;;;;;;5.70;2.22;;;;;;;20.14;50.77;96255.03;10373243;28;20065;-77
2023/03/23 21:32:22;;;;;;;4.00;2.30;;;;;;;20.14;50.86;96257.75;10377662;28;20046;-78
2023/03/23 21:37:41;;;;;;;4.35;2.30;;;;;;;20.14;50.65;96249.63;10376959;28;20057;-77
2023/03/23 21:43:01;;;;;;;4.78;2.60;;;;;;;20.14;50.68;96250.41;10391939;28;20045;-77
2023/03/23 21:48:22;;;;;;;5.88;2.65;;;;;;;20.14;50.75;96246.91;10363442;28;20046;-76
2023/03/23 21:53:42;;;;;;;6.53;2.63;;;;;;;20.14;50.54;96238.81;10362449;28;20056;-76
2023/03/23 21:59:03;;;;;;;7.18;2.78;;;;;;;20.12;50.67;96239.16;10376019;28;20052;-77
2023/03/23 22:04:23;;;;;;;9.23;3.20;;;;;;;20.12;50.71;96235.66;10375876;28;20096;-76
2023/03/23 22:09:44;;;;;;;11.15;2.95;;;;;;;20.12;50.66;96235.66;10361878;28;20490;-77
2023/03/23 22:15:08;;;;;;;10.00;3.22;;;;;;;20.11;50.73;96231.38;10348893;28;20128;-76
2023/03/23 22:20:29;;;;;;;6.10;2.85;;;;;;;20.10;50.61;96217.06;10390160;28;20042;-77
2023/03/23 22:25:49;;;;;;;8.55;3.42;;;;;;;20.10;50.65;96224.41;10347455;28;20070;-76
2023/03/23 22:31:17;;;;;;;8.30;3.45;;;;;;;20.09;50.56;96220.09;10359379;28;20045;-77
2023/03/23 22:36:38;;;;;;;9.35;3.50;;;;;;;20.09;50.67;96214.69;10373323;28;20449;-77
2023/03/23 22:41:57;;;;;;;7.28;3.30;;;;;;;20.08;50.66;96210.44;10372565;28;20050;-77
2023/03/23 22:47:16;;;;;;;7.65;3.15;;;;;;;20.08;50.57;96207.72;10358249;28;20045;-77
2023/03/23 22:52:36;;;;;;;10.45;3.38;;;;;;;20.07;50.68;96200.72;10387265;28;20061;-76
2023/03/23 22:57:56;;;;;;;7.20;3.00;;;;;;;20.06;50.58;96199.19;10358748;28;20111;-77
2023/03/23 23:03:16;;;;;;;6.25;2.92;;;;;;;20.06;50.58;96196.47;10387445;28;20069;-77
2023/03/23 23:08:36;;;;;;;7.90;3.35;;;;;;;20.06;50.66;96207.28;10371896;28;20046;-77
2023/03/23 23:13:55;;;;;;;7.00;3.47;;;;;;;20.05;51.07;96198.41;10371804;28;20084;-76
2023/03/23 23:19:15;;;;;;;5.40;2.83;;;;;;;20.04;51.13;96201.44;10386389;28;20045;-76
2023/03/23 23:24:34;;;;;;;8.55;3.22;;;;;;;20.05;51.20;96192.19;10371340;28;20042;-77
2023/03/23 23:29:55;;;;;;;5.50;2.80;;;;;;;20.03;51.27;96189.03;10305623;28;1183216;-77
2023/03/23 23:35:14;;;;;;;6.72;2.70;;;;;;;20.03;51.35;96181.72;10358947;28;20041;-77
2023/03/23 23:40:34;;;;;;;5.78;2.72;;;;;;;20.03;51.30;96183.63;10359553;28;20045;-76
2023/03/23 23:45:54;;;;;;;6.30;2.60;;;;;;;20.02;51.43;96179.34;10358743;28;20105;-77
2023/03/23 23:51:15;;;;;;;5.93;2.50;;;;;;;20.02;51.10;96182.06;10372332;28;20049;-77
2023/03/23 23:56:34;;;;;;;5.90;2.50;;;;;;;20.00;51.15;96178.91;10372568;28;20042;-76
